createdAt,value
2019-04-25T00:00:44.753Z,12.10
2019-04-25T00:05:47.218Z,12.09
2019-04-25T00:10:49.671Z,12.20
2019-04-25T00:15:52.145Z,12.16
2019-04-25T00:20:57.458Z,12.36
2019-04-25T00:26:01.361Z,12.32
2019-04-25T00:31:02.521Z,12.36
2019-04-25T00:36:04.968Z,12.21
2019-04-25T00:41:07.438Z,12.18
2019-04-25T00:46:11.339Z,12.07
2019-04-25T00:51:12.336Z,12.10
2019-04-25T00:56:14.793Z,12.05
2019-04-25T01:01:35.485Z,12.15
2019-04-25T01:06:37.937Z,12.11
2019-04-25T01:11:40.389Z,12.11
2019-04-25T01:16:42.846Z,12.08
2019-04-25T01:21:45.602Z,12.02
2019-04-25T01:26:47.732Z,11.94
2019-04-25T01:31:50.179Z,11.97
2019-04-25T01:36:53.225Z,11.97
2019-04-25T01:41:56.075Z,12.02
2019-04-25T01:46:58.196Z,11.94
2019-04-25T01:51:59.995Z,12.02
2019-04-25T01:57:04.171Z,12.11
2019-04-25T02:02:06.661Z,12.08
2019-04-25T02:07:07.355Z,12.01
2019-04-25T02:12:09.806Z,11.94
2019-04-25T02:17:14.035Z,11.89
2019-04-25T02:22:14.707Z,11.89
2019-04-25T02:27:17.153Z,11.92
2019-04-25T02:32:19.597Z,11.68
2019-04-25T02:37:22.048Z,11.69
2019-04-25T02:42:24.796Z,11.65
2019-04-25T02:47:46.345Z,11.66
2019-04-25T02:52:47.997Z,11.54
2019-04-25T02:57:50.438Z,11.51
2019-04-25T03:02:54.746Z,11.47
2019-04-25T03:07:55.377Z,11.63
2019-04-25T03:12:59.207Z,11.61
2019-04-25T03:18:00.298Z,11.68
2019-04-25T03:23:21.014Z,11.56
2019-04-25T03:28:23.913Z,11.33
2019-04-25T03:33:26.077Z,11.31
2019-04-25T03:38:28.379Z,11.24
2019-04-25T03:43:30.831Z,11.05
2019-04-25T03:48:36.736Z,11.12
2019-04-25T03:53:35.748Z,11.01
2019-04-25T03:58:38.203Z,10.93
2019-04-25T04:03:40.658Z,10.90
2019-04-25T04:08:44.270Z,10.82
2019-04-25T04:13:45.566Z,10.86
2019-04-25T04:18:48.017Z,10.98
2019-04-25T04:23:54.186Z,10.99
2019-04-25T04:28:56.004Z,11.03
2019-04-25T04:33:58.473Z,11.08
2019-04-25T04:39:00.927Z,11.12
2019-04-25T04:44:04.136Z,11.43
2019-04-25T04:49:05.847Z,11.63
2019-04-25T04:54:09.413Z,11.66
2019-04-25T04:59:10.939Z,11.59
2019-04-25T05:04:17.104Z,11.59
2019-04-25T05:09:18.556Z,11.54
2019-04-25T05:14:21.026Z,11.61
2019-04-25T05:19:23.873Z,11.79
2019-04-25T05:24:26.353Z,11.96
2019-04-25T05:29:28.406Z,12.03
2019-04-25T05:34:30.860Z,12.20
2019-04-25T05:39:33.537Z,12.24
2019-04-25T05:44:35.803Z,12.46
2019-04-25T05:49:38.257Z,12.57
2019-04-25T05:54:40.742Z,12.75
2019-04-25T05:59:43.710Z,13.15
2019-04-25T06:04:45.703Z,13.87
2019-04-25T06:09:51.094Z,14.84
2019-04-25T06:14:54.654Z,15.47
2019-04-25T06:19:56.027Z,15.89
2019-04-25T06:25:01.294Z,15.82
2019-04-25T06:30:04.331Z,16.08
2019-04-25T06:35:06.217Z,16.09
2019-04-25T06:40:08.705Z,16.25
2019-04-25T06:45:11.208Z,16.21
2019-04-25T06:50:16.161Z,16.48
2019-04-25T06:55:20.925Z,16.69
2019-04-25T07:00:22.437Z,17.18
2019-04-25T07:05:30.998Z,17.44
2019-04-25T07:10:26.260Z,17.82
2019-04-25T07:15:28.446Z,18.15
2019-04-25T07:20:30.910Z,18.18
2019-04-25T07:25:35.312Z,18.30
2019-04-25T07:30:54.515Z,18.32
2019-04-25T07:35:57.053Z,18.20
2019-04-25T07:40:58.740Z,18.94
2019-04-25T07:46:01.218Z,19.38
2019-04-25T07:51:03.785Z,19.48
2019-04-25T07:56:06.130Z,19.74
2019-04-25T08:01:08.589Z,19.96
2019-04-25T08:06:11.052Z,20.51
2019-04-25T08:11:14.124Z,21.50
2019-04-25T08:16:23.324Z,23.91
2019-04-25T08:21:24.338Z,36.51
2019-04-25T08:26:26.799Z,43.79
2019-04-25T08:31:30.353Z,47.89
2019-04-25T08:36:33.832Z,49.02
2019-04-25T08:41:35.743Z,51.52
2019-04-25T08:46:38.079Z,51.51
2019-04-25T08:51:40.064Z,49.52
2019-04-25T08:56:42.449Z,35.68
2019-04-25T09:01:56.124Z,34.62
2019-04-25T09:06:58.594Z,43.73
2019-04-25T09:12:01.064Z,47.87
2019-04-25T09:17:03.636Z,45.59
2019-04-25T09:22:06.114Z,43.43
2019-04-25T09:27:08.593Z,44.29
2019-04-25T09:32:11.062Z,41.67
2019-04-25T09:37:14.284Z,55.46
2019-04-25T09:42:16.063Z,43.57
2019-04-25T09:47:18.534Z,42.89
2019-04-25T09:52:20.973Z,53.29
2019-04-25T09:57:43.438Z,43.47
2019-04-25T10:02:44.638Z,39.31
2019-04-25T10:07:48.906Z,38.59
2019-04-25T10:12:49.971Z,37.79
2019-04-25T10:17:51.698Z,38.78
2019-04-25T10:22:54.160Z,33.73
2019-04-25T10:27:56.635Z,31.37
2019-04-25T10:32:59.118Z,29.76
2019-04-25T10:38:01.591Z,30.29
2019-04-25T10:43:04.088Z,31.09
2019-04-25T10:48:06.520Z,34.27
2019-04-25T10:53:08.988Z,37.38
2019-04-25T10:58:11.528Z,38.68
2019-04-25T11:03:29.383Z,34.83
2019-04-25T11:08:31.855Z,33.11
2019-04-25T11:13:35.474Z,32.98
2019-04-25T11:18:36.802Z,31.37
2019-04-25T11:23:39.261Z,31.15
2019-04-25T11:28:42.668Z,31.07
2019-04-25T11:33:44.188Z,31.34
2019-04-25T11:38:53.733Z,31.54
2019-04-25T11:43:55.696Z,33.32
2019-04-25T11:48:57.566Z,31.05
2019-04-25T11:54:00.044Z,30.92
2019-04-25T11:59:02.519Z,37.41
2019-04-25T12:04:04.980Z,31.88
2019-04-25T12:09:07.461Z,33.15
2019-04-25T12:14:09.917Z,31.24
2019-04-25T12:19:13.893Z,31.04
2019-04-25T12:24:14.877Z,31.33
2019-04-25T12:29:17.342Z,32.30
2019-04-25T12:34:19.802Z,32.55
2019-04-25T12:39:24.146Z,31.93
2019-04-25T12:44:33.583Z,32.99
2019-04-25T12:49:36.039Z,31.90
2019-04-25T12:54:38.527Z,31.32
2019-04-25T12:59:41.013Z,30.98
2019-04-25T13:04:44.322Z,30.96
2019-04-25T13:09:47.804Z,31.06
2019-04-25T13:14:48.403Z,30.99
2019-04-25T13:19:50.909Z,31.08
2019-04-25T13:24:53.325Z,30.95
2019-04-25T13:30:05.503Z,30.67
2019-04-25T13:35:09.631Z,30.48
2019-04-25T13:40:10.089Z,30.84
2019-04-25T13:45:16.038Z,30.75
2019-04-25T13:50:18.563Z,30.52
2019-04-25T13:55:21.318Z,30.34
2019-04-25T14:00:24.875Z,30.06
2019-04-25T14:05:26.116Z,29.52
2019-04-25T14:10:28.441Z,28.99
2019-04-25T14:15:30.897Z,29.26
2019-04-25T14:20:36.232Z,29.08
2019-04-25T14:25:38.769Z,28.81
2019-04-25T14:30:41.182Z,28.73
2019-04-25T14:35:43.647Z,28.41
2019-04-25T14:40:46.107Z,28.26
2019-04-25T14:45:48.602Z,28.40
2019-04-25T14:50:51.054Z,28.35
2019-04-25T14:56:02.468Z,28.36
2019-04-25T15:01:04.931Z,28.11
2019-04-25T15:06:07.402Z,28.20
2019-04-25T15:11:09.884Z,28.31
2019-04-25T15:16:12.353Z,28.38
2019-04-25T15:21:14.822Z,28.38
2019-04-25T15:26:17.308Z,28.54
2019-04-25T15:31:19.768Z,28.54
2019-04-25T15:36:40.415Z,28.74
2019-04-25T15:41:48.853Z,29.00
2019-04-25T15:46:51.295Z,29.27
2019-04-25T15:51:53.759Z,29.05
2019-04-25T15:56:56.230Z,28.74
2019-04-25T16:02:07.894Z,28.19
2019-04-25T16:07:01.158Z,27.71
2019-04-25T16:12:03.642Z,27.40
2019-04-25T16:17:06.134Z,27.17
2019-04-25T16:22:08.593Z,27.18
2019-04-25T16:27:11.105Z,27.00
2019-04-25T16:32:21.057Z,26.75
2019-04-25T16:37:22.197Z,26.59
2019-04-25T16:42:24.650Z,26.53
2019-04-25T16:47:27.110Z,26.58
2019-04-25T16:52:30.427Z,26.36
2019-04-25T16:57:32.741Z,26.28
2019-04-25T17:02:37.526Z,25.89
2019-04-25T17:07:37.036Z,25.43
2019-04-25T17:12:39.501Z,24.92
2019-04-25T17:17:41.970Z,24.47
2019-04-25T17:22:44.440Z,24.03
2019-04-25T17:27:46.922Z,23.61
2019-04-25T17:32:53.781Z,23.30
2019-04-25T17:37:51.862Z,22.99
2019-04-25T17:42:54.334Z,22.82
2019-04-25T17:47:56.816Z,22.67
2019-04-25T17:52:59.270Z,22.61
2019-04-25T17:58:01.747Z,22.37
2019-04-25T18:03:04.214Z,22.20
2019-04-25T18:08:06.691Z,22.04
2019-04-25T18:13:09.570Z,21.84
2019-04-25T18:18:23.686Z,21.60
2019-04-25T18:23:44.484Z,21.18
2019-04-25T18:28:53.082Z,20.91
2019-04-25T18:33:55.622Z,20.66
2019-04-25T18:39:07.332Z,20.38
2019-04-25T18:44:09.841Z,20.03
2019-04-25T18:49:12.351Z,19.87
2019-04-25T18:54:24.035Z,19.65
2019-04-25T18:59:32.279Z,19.53
2019-04-25T19:04:38.310Z,19.35
2019-04-25T19:09:40.770Z,19.19
2019-04-25T19:14:43.155Z,18.97
2019-04-25T19:19:45.617Z,18.91
2019-04-25T19:24:48.629Z,18.75
2019-04-25T19:29:52.500Z,18.61
2019-04-25T19:34:52.565Z,18.48
2019-04-25T19:40:01.292Z,18.33
2019-04-25T19:45:03.778Z,18.16
2019-04-25T19:50:06.257Z,17.97
2019-04-25T19:55:08.724Z,17.86
2019-04-25T20:00:11.200Z,17.53
2019-04-25T20:05:16.222Z,17.49
2019-04-25T20:10:36.698Z,17.40
2019-04-25T20:15:39.199Z,17.24
2019-04-25T20:20:41.668Z,17.14
2019-04-25T20:25:45.279Z,17.17
2019-04-25T20:30:47.051Z,17.07
2019-04-25T20:35:49.214Z,16.80
2019-04-25T20:40:51.811Z,16.68
2019-04-25T20:45:54.476Z,16.68
2019-04-25T20:50:56.695Z,16.56
2019-04-25T20:55:59.160Z,16.44
2019-04-25T21:01:01.655Z,16.34
2019-04-25T21:06:04.128Z,16.15
2019-04-25T21:11:06.614Z,16.03
2019-04-25T21:16:27.407Z,15.99
2019-04-25T21:21:29.882Z,15.93
2019-04-25T21:26:32.357Z,15.83
2019-04-25T21:31:34.832Z,15.71
2019-04-25T21:36:37.331Z,15.47
2019-04-25T21:41:45.516Z,15.30
2019-04-25T21:46:48.003Z,15.35
2019-04-25T21:51:50.483Z,15.13
2019-04-25T21:56:53.296Z,14.94
2019-04-25T22:01:56.298Z,15.11
2019-04-25T22:06:58.838Z,15.22
2019-04-25T22:12:01.173Z,15.09
2019-04-25T22:17:02.981Z,14.84
2019-04-25T22:22:05.272Z,14.76
2019-04-25T22:27:07.719Z,14.73
2019-04-25T22:32:28.066Z,14.74
2019-04-25T22:37:30.537Z,14.50
2019-04-25T22:42:33.013Z,14.42
2019-04-25T22:47:35.475Z,14.38
2019-04-25T22:52:37.944Z,14.26
2019-04-25T22:57:40.407Z,14.23
2019-04-25T23:02:45.779Z,14.20
2019-04-25T23:07:48.228Z,14.03
2019-04-25T23:12:50.679Z,14.00
2019-04-25T23:17:53.147Z,13.97
2019-04-25T23:22:55.608Z,13.56
2019-04-25T23:27:58.048Z,13.31
2019-04-25T23:33:00.501Z,13.54
2019-04-25T23:38:02.989Z,13.76
2019-04-25T23:43:06.161Z,13.71
2019-04-25T23:48:08.300Z,13.78
2019-04-25T23:53:10.728Z,13.48
2019-04-25T23:58:13.469Z,13.45
